Terminal Aerodrome Forecast
Issued by NWS

Home | Current Version | Previous Version | Text Only | Print | Product List | Glossary On
Versions: 1 2 3 4 5 6 7 8 9 10 11 12 13 14 15 16 17 18
832
FTUS43 KGRB 242016 AAA
TAFAUW
TAF AMD
KAUW 242016Z 2420/2518 02005KT 5SM -RA BR OVC012
      TEMPO 2421/2501 P6SM -RA OVC008
     FM250300 05008KT 6SM -RA OVC008
     FM250600 06008KT P6SM OVC008
     FM251600 07012G22KT P6SM OVC008
     FM251700 07012G22KT P6SM OVC010=

USA.gov is the U.S. government's official web portal to all federal, state and local government web resources and services.